sensor_id;sensor_type;location;lat;lon;timestamp;P1;durP1;ratioP1;P2;durP2;ratioP2
68792;SDS011;55778;54.346;10.210;2023-12-29T00:00:03;15.55;;;2.45;;
68792;SDS011;55778;54.346;10.210;2023-12-29T00:02:29;11.55;;;2.65;;
68792;SDS011;55778;54.346;10.210;2023-12-29T00:04:55;12.05;;;2.30;;
68792;SDS011;55778;54.346;10.210;2023-12-29T00:07:20;11.55;;;2.45;;
68792;SDS011;55778;54.346;10.210;2023-12-29T00:09:46;10.93;;;2.50;;
68792;SDS011;55778;54.346;10.210;2023-12-29T00:12:11;8.35;;;2.72;;
68792;SDS011;55778;54.346;10.210;2023-12-29T00:14:39;10.00;;;2.30;;
68792;SDS011;55778;54.346;10.210;2023-12-29T00:17:05;7.68;;;1.90;;
68792;SDS011;55778;54.346;10.210;2023-12-29T00:19:30;9.25;;;2.35;;
68792;SDS011;55778;54.346;10.210;2023-12-29T00:21:55;8.43;;;2.10;;
68792;SDS011;55778;54.346;10.210;2023-12-29T00:24:21;7.05;;;2.40;;
68792;SDS011;55778;54.346;10.210;2023-12-29T00:26:46;5.68;;;1.52;;
68792;SDS011;55778;54.346;10.210;2023-12-29T00:29:13;6.18;;;2.00;;
68792;SDS011;55778;54.346;10.210;2023-12-29T00:31:41;8.82;;;1.73;;
68792;SDS011;55778;54.346;10.210;2023-12-29T00:34:06;6.47;;;1.50;;
68792;SDS011;55778;54.346;10.210;2023-12-29T00:36:32;6.13;;;1.20;;
68792;SDS011;55778;54.346;10.210;2023-12-29T00:38:57;5.72;;;1.60;;
68792;SDS011;55778;54.346;10.210;2023-12-29T00:41:23;4.57;;;1.30;;
68792;SDS011;55778;54.346;10.210;2023-12-29T00:43:48;4.63;;;1.30;;
68792;SDS011;55778;54.346;10.210;2023-12-29T00:46:14;7.25;;;1.80;;
68792;SDS011;55778;54.346;10.210;2023-12-29T00:48:40;6.60;;;1.50;;
68792;SDS011;55778;54.346;10.210;2023-12-29T00:51:05;6.45;;;1.15;;
68792;SDS011;55778;54.346;10.210;2023-12-29T00:53:31;8.32;;;1.60;;
68792;SDS011;55778;54.346;10.210;2023-12-29T00:55:57;4.78;;;1.20;;
68792;SDS011;55778;54.346;10.210;2023-12-29T00:58:23;3.83;;;1.10;;
68792;SDS011;55778;54.346;10.210;2023-12-29T01:00:48;7.43;;;1.30;;
68792;SDS011;55778;54.346;10.210;2023-12-29T01:03:14;5.85;;;1.55;;
68792;SDS011;55778;54.346;10.210;2023-12-29T01:05:39;5.72;;;1.48;;
68792;SDS011;55778;54.346;10.210;2023-12-29T01:08:04;3.53;;;1.35;;
68792;SDS011;55778;54.346;10.210;2023-12-29T01:10:30;7.15;;;1.73;;
68792;SDS011;55778;54.346;10.210;2023-12-29T01:12:55;6.30;;;1.40;;
68792;SDS011;55778;54.346;10.210;2023-12-29T01:15:20;5.38;;;1.55;;
68792;SDS011;55778;54.346;10.210;2023-12-29T01:17:46;4.68;;;1.48;;
68792;SDS011;55778;54.346;10.210;2023-12-29T01:20:11;6.53;;;1.60;;
68792;SDS011;55778;54.346;10.210;2023-12-29T01:22:37;8.10;;;2.00;;
68792;SDS011;55778;54.346;10.210;2023-12-29T01:25:02;8.15;;;2.03;;
68792;SDS011;55778;54.346;10.210;2023-12-29T01:27:29;5.05;;;1.90;;
68792;SDS011;55778;54.346;10.210;2023-12-29T01:29:54;6.15;;;2.00;;
68792;SDS011;55778;54.346;10.210;2023-12-29T01:32:20;4.90;;;1.85;;
68792;SDS011;55778;54.346;10.210;2023-12-29T01:34:46;4.15;;;1.80;;
68792;SDS011;55778;54.346;10.210;2023-12-29T01:37:12;7.70;;;2.80;;
68792;SDS011;55778;54.346;10.210;2023-12-29T01:39:37;7.10;;;2.17;;
68792;SDS011;55778;54.346;10.210;2023-12-29T01:42:03;6.70;;;1.90;;
68792;SDS011;55778;54.346;10.210;2023-12-29T01:44:28;5.68;;;1.88;;
68792;SDS011;55778;54.346;10.210;2023-12-29T01:46:55;6.32;;;1.80;;
68792;SDS011;55778;54.346;10.210;2023-12-29T01:49:23;6.18;;;1.90;;
68792;SDS011;55778;54.346;10.210;2023-12-29T01:51:50;8.30;;;2.78;;
68792;SDS011;55778;54.346;10.210;2023-12-29T01:54:20;4.95;;;2.08;;
68792;SDS011;55778;54.346;10.210;2023-12-29T01:56:50;5.82;;;2.13;;
68792;SDS011;55778;54.346;10.210;2023-12-29T01:59:16;5.82;;;2.05;;
68792;SDS011;55778;54.346;10.210;2023-12-29T02:01:43;5.57;;;2.10;;
68792;SDS011;55778;54.346;10.210;2023-12-29T02:04:10;6.78;;;2.15;;
68792;SDS011;55778;54.346;10.210;2023-12-29T02:06:37;8.48;;;2.15;;
68792;SDS011;55778;54.346;10.210;2023-12-29T02:09:04;5.88;;;1.80;;
68792;SDS011;55778;54.346;10.210;2023-12-29T02:11:30;6.60;;;2.00;;
68792;SDS011;55778;54.346;10.210;2023-12-29T02:14:02;8.80;;;2.20;;
68792;SDS011;55778;54.346;10.210;2023-12-29T02:22:11;7.13;;;1.73;;
68792;SDS011;55778;54.346;10.210;2023-12-29T02:24:37;6.50;;;1.70;;
68792;SDS011;55778;54.346;10.210;2023-12-29T02:29:48;5.65;;;1.90;;
68792;SDS011;55778;54.346;10.210;2023-12-29T02:32:38;4.43;;;1.77;;
68792;SDS011;55778;54.346;10.210;2023-12-29T02:35:12;9.38;;;1.75;;
68792;SDS011;55778;54.346;10.210;2023-12-29T02:37:39;7.57;;;2.10;;
68792;SDS011;55778;54.346;10.210;2023-12-29T02:40:07;7.57;;;2.20;;
68792;SDS011;55778;54.346;10.210;2023-12-29T02:42:33;8.70;;;2.42;;
68792;SDS011;55778;54.346;10.210;2023-12-29T02:44:59;8.13;;;2.53;;
68792;SDS011;55778;54.346;10.210;2023-12-29T02:47:24;9.25;;;2.30;;
68792;SDS011;55778;54.346;10.210;2023-12-29T02:49:50;8.48;;;2.58;;
68792;SDS011;55778;54.346;10.210;2023-12-29T02:52:15;11.52;;;2.83;;
68792;SDS011;55778;54.346;10.210;2023-12-29T02:54:41;16.70;;;2.92;;
68792;SDS011;55778;54.346;10.210;2023-12-29T02:57:06;10.32;;;3.22;;
68792;SDS011;55778;54.346;10.210;2023-12-29T02:59:31;9.32;;;2.28;;
68792;SDS011;55778;54.346;10.210;2023-12-29T03:01:57;7.03;;;2.53;;
68792;SDS011;55778;54.346;10.210;2023-12-29T03:04:22;6.32;;;1.88;;
68792;SDS011;55778;54.346;10.210;2023-12-29T03:06:48;11.15;;;2.20;;
68792;SDS011;55778;54.346;10.210;2023-12-29T03:09:13;9.68;;;2.00;;
68792;SDS011;55778;54.346;10.210;2023-12-29T03:11:38;7.32;;;2.13;;
68792;SDS011;55778;54.346;10.210;2023-12-29T03:14:04;12.80;;;2.33;;
68792;SDS011;55778;54.346;10.210;2023-12-29T03:16:29;11.32;;;2.40;;
68792;SDS011;55778;54.346;10.210;2023-12-29T03:18:54;9.10;;;2.15;;
68792;SDS011;55778;54.346;10.210;2023-12-29T03:21:20;11.35;;;2.72;;
68792;SDS011;55778;54.346;10.210;2023-12-29T03:23:45;7.85;;;1.80;;
68792;SDS011;55778;54.346;10.210;2023-12-29T03:26:11;8.60;;;1.63;;
68792;SDS011;55778;54.346;10.210;2023-12-29T03:28:36;10.85;;;2.17;;
68792;SDS011;55778;54.346;10.210;2023-12-29T03:31:02;10.55;;;2.03;;
68792;SDS011;55778;54.346;10.210;2023-12-29T03:33:27;14.30;;;2.08;;
68792;SDS011;55778;54.346;10.210;2023-12-29T03:35:53;12.35;;;2.45;;
68792;SDS011;55778;54.346;10.210;2023-12-29T03:38:18;14.73;;;2.50;;
68792;SDS011;55778;54.346;10.210;2023-12-29T03:40:43;9.63;;;2.28;;
68792;SDS011;55778;54.346;10.210;2023-12-29T03:43:09;8.73;;;2.45;;
68792;SDS011;55778;54.346;10.210;2023-12-29T03:45:34;9.85;;;1.90;;
68792;SDS011;55778;54.346;10.210;2023-12-29T03:48:00;9.88;;;1.90;;
68792;SDS011;55778;54.346;10.210;2023-12-29T03:50:28;15.27;;;3.17;;
68792;SDS011;55778;54.346;10.210;2023-12-29T03:52:53;12.65;;;2.00;;
68792;SDS011;55778;54.346;10.210;2023-12-29T03:55:19;13.82;;;2.13;;
68792;SDS011;55778;54.346;10.210;2023-12-29T03:57:44;8.75;;;1.98;;
68792;SDS011;55778;54.346;10.210;2023-12-29T04:00:13;14.05;;;2.72;;
68792;SDS011;55778;54.346;10.210;2023-12-29T04:02:39;14.50;;;2.40;;
68792;SDS011;55778;54.346;10.210;2023-12-29T04:05:06;7.50;;;2.20;;
68792;SDS011;55778;54.346;10.210;2023-12-29T04:07:33;9.82;;;2.30;;
68792;SDS011;55778;54.346;10.210;2023-12-29T04:09:59;7.40;;;1.85;;
68792;SDS011;55778;54.346;10.210;2023-12-29T04:12:24;6.43;;;1.92;;
68792;SDS011;55778;54.346;10.210;2023-12-29T04:14:49;9.00;;;1.75;;
68792;SDS011;55778;54.346;10.210;2023-12-29T04:17:15;9.48;;;2.15;;
68792;SDS011;55778;54.346;10.210;2023-12-29T04:19:41;8.50;;;1.92;;
68792;SDS011;55778;54.346;10.210;2023-12-29T04:22:06;7.68;;;1.67;;
68792;SDS011;55778;54.346;10.210;2023-12-29T04:24:32;6.20;;;1.75;;
68792;SDS011;55778;54.346;10.210;2023-12-29T04:26:58;10.68;;;2.40;;
68792;SDS011;55778;54.346;10.210;2023-12-29T04:29:23;8.10;;;1.73;;
68792;SDS011;55778;54.346;10.210;2023-12-29T04:31:49;7.28;;;1.83;;
68792;SDS011;55778;54.346;10.210;2023-12-29T04:34:17;5.93;;;1.40;;
68792;SDS011;55778;54.346;10.210;2023-12-29T04:36:43;12.07;;;1.83;;
68792;SDS011;55778;54.346;10.210;2023-12-29T04:39:08;7.57;;;1.50;;
68792;SDS011;55778;54.346;10.210;2023-12-29T04:41:34;8.45;;;1.55;;
68792;SDS011;55778;54.346;10.210;2023-12-29T04:44:00;7.13;;;1.73;;
68792;SDS011;55778;54.346;10.210;2023-12-29T04:46:25;9.95;;;1.63;;
68792;SDS011;55778;54.346;10.210;2023-12-29T04:48:51;6.18;;;1.27;;
68792;SDS011;55778;54.346;10.210;2023-12-29T04:51:16;6.72;;;1.55;;
68792;SDS011;55778;54.346;10.210;2023-12-29T04:53:41;7.25;;;1.20;;
68792;SDS011;55778;54.346;10.210;2023-12-29T04:56:09;8.38;;;1.75;;
68792;SDS011;55778;54.346;10.210;2023-12-29T04:58:35;10.25;;;1.88;;
68792;SDS011;55778;54.346;10.210;2023-12-29T05:01:00;8.07;;;1.63;;
68792;SDS011;55778;54.346;10.210;2023-12-29T05:03:26;4.65;;;2.00;;
68792;SDS011;55778;54.346;10.210;2023-12-29T05:05:51;9.93;;;1.98;;
68792;SDS011;55778;54.346;10.210;2023-12-29T05:08:16;7.68;;;1.88;;
68792;SDS011;55778;54.346;10.210;2023-12-29T05:10:42;10.15;;;2.13;;
68792;SDS011;55778;54.346;10.210;2023-12-29T05:13:07;6.82;;;1.75;;
68792;SDS011;55778;54.346;10.210;2023-12-29T05:15:33;8.80;;;1.80;;
68792;SDS011;55778;54.346;10.210;2023-12-29T05:17:59;8.88;;;1.77;;
68792;SDS011;55778;54.346;10.210;2023-12-29T05:20:24;8.25;;;1.90;;
68792;SDS011;55778;54.346;10.210;2023-12-29T05:22:49;11.57;;;1.70;;
68792;SDS011;55778;54.346;10.210;2023-12-29T05:25:15;6.65;;;1.27;;
68792;SDS011;55778;54.346;10.210;2023-12-29T05:27:40;6.25;;;1.75;;
68792;SDS011;55778;54.346;10.210;2023-12-29T05:30:06;9.25;;;1.70;;
68792;SDS011;55778;54.346;10.210;2023-12-29T05:32:31;10.88;;;2.45;;
68792;SDS011;55778;54.346;10.210;2023-12-29T05:34:57;13.43;;;2.38;;
68792;SDS011;55778;54.346;10.210;2023-12-29T05:37:22;14.52;;;2.38;;
68792;SDS011;55778;54.346;10.210;2023-12-29T05:39:48;13.10;;;1.95;;
68792;SDS011;55778;54.346;10.210;2023-12-29T05:42:13;11.40;;;1.95;;
68792;SDS011;55778;54.346;10.210;2023-12-29T05:44:38;8.52;;;1.85;;
68792;SDS011;55778;54.346;10.210;2023-12-29T05:47:04;8.85;;;1.90;;
68792;SDS011;55778;54.346;10.210;2023-12-29T05:49:30;13.15;;;2.08;;
68792;SDS011;55778;54.346;10.210;2023-12-29T05:51:56;11.57;;;2.28;;
68792;SDS011;55778;54.346;10.210;2023-12-29T05:54:22;8.50;;;1.95;;
68792;SDS011;55778;54.346;10.210;2023-12-29T05:56:48;13.27;;;1.77;;
68792;SDS011;55778;54.346;10.210;2023-12-29T05:59:13;11.60;;;1.70;;
68792;SDS011;55778;54.346;10.210;2023-12-29T06:01:39;12.45;;;2.42;;
68792;SDS011;55778;54.346;10.210;2023-12-29T06:04:04;11.75;;;2.00;;
68792;SDS011;55778;54.346;10.210;2023-12-29T06:06:29;10.85;;;1.90;;
68792;SDS011;55778;54.346;10.210;2023-12-29T06:08:57;13.75;;;2.63;;
68792;SDS011;55778;54.346;10.210;2023-12-29T06:11:23;8.50;;;1.73;;
68792;SDS011;55778;54.346;10.210;2023-12-29T06:13:48;12.85;;;1.80;;
68792;SDS011;55778;54.346;10.210;2023-12-29T06:16:17;11.68;;;2.17;;
68792;SDS011;55778;54.346;10.210;2023-12-29T06:18:44;10.80;;;2.35;;
68792;SDS011;55778;54.346;10.210;2023-12-29T06:21:10;11.50;;;2.00;;
68792;SDS011;55778;54.346;10.210;2023-12-29T06:23:35;10.20;;;1.90;;
68792;SDS011;55778;54.346;10.210;2023-12-29T06:26:00;13.75;;;1.80;;
68792;SDS011;55778;54.346;10.210;2023-12-29T06:28:26;8.85;;;1.75;;
68792;SDS011;55778;54.346;10.210;2023-12-29T06:30:53;13.38;;;1.85;;
68792;SDS011;55778;54.346;10.210;2023-12-29T06:33:18;12.02;;;1.95;;
68792;SDS011;55778;54.346;10.210;2023-12-29T06:35:49;10.13;;;2.03;;
68792;SDS011;55778;54.346;10.210;2023-12-29T06:38:15;13.02;;;2.28;;
68792;SDS011;55778;54.346;10.210;2023-12-29T06:40:40;13.52;;;2.50;;
68792;SDS011;55778;54.346;10.210;2023-12-29T06:43:06;8.85;;;2.38;;
68792;SDS011;55778;54.346;10.210;2023-12-29T06:45:31;11.75;;;2.28;;
68792;SDS011;55778;54.346;10.210;2023-12-29T06:47:56;13.32;;;2.55;;
68792;SDS011;55778;54.346;10.210;2023-12-29T06:50:22;17.00;;;2.08;;
68792;SDS011;55778;54.346;10.210;2023-12-29T06:52:47;15.10;;;2.50;;
68792;SDS011;55778;54.346;10.210;2023-12-29T06:55:13;12.18;;;2.08;;
68792;SDS011;55778;54.346;10.210;2023-12-29T06:57:38;18.98;;;3.17;;
68792;SDS011;55778;54.346;10.210;2023-12-29T07:00:04;18.42;;;3.35;;
68792;SDS011;55778;54.346;10.210;2023-12-29T07:02:32;17.20;;;1.80;;
68792;SDS011;55778;54.346;10.210;2023-12-29T07:04:57;16.55;;;2.50;;
68792;SDS011;55778;54.346;10.210;2023-12-29T07:07:23;18.17;;;3.60;;
68792;SDS011;55778;54.346;10.210;2023-12-29T07:09:49;15.48;;;2.67;;
68792;SDS011;55778;54.346;10.210;2023-12-29T07:12:14;16.85;;;2.17;;
68792;SDS011;55778;54.346;10.210;2023-12-29T07:14:40;12.68;;;2.03;;
68792;SDS011;55778;54.346;10.210;2023-12-29T07:17:06;14.82;;;2.35;;
68792;SDS011;55778;54.346;10.210;2023-12-29T07:19:32;16.63;;;3.85;;
68792;SDS011;55778;54.346;10.210;2023-12-29T07:24:27;20.67;;;2.83;;
68792;SDS011;55778;54.346;10.210;2023-12-29T07:26:53;14.15;;;2.35;;
68792;SDS011;55778;54.346;10.210;2023-12-29T07:29:18;15.98;;;3.03;;
68792;SDS011;55778;54.346;10.210;2023-12-29T07:31:44;12.52;;;2.50;;
68792;SDS011;55778;54.346;10.210;2023-12-29T07:34:10;14.95;;;2.58;;
68792;SDS011;55778;54.346;10.210;2023-12-29T07:36:38;15.68;;;2.85;;
68792;SDS011;55778;54.346;10.210;2023-12-29T07:39:04;16.20;;;2.80;;
68792;SDS011;55778;54.346;10.210;2023-12-29T07:41:32;13.68;;;2.40;;
68792;SDS011;55778;54.346;10.210;2023-12-29T07:43:58;16.50;;;2.13;;
68792;SDS011;55778;54.346;10.210;2023-12-29T07:46:26;13.60;;;3.10;;
68792;SDS011;55778;54.346;10.210;2023-12-29T07:48:52;14.18;;;2.60;;
68792;SDS011;55778;54.346;10.210;2023-12-29T07:51:18;19.15;;;2.42;;
68792;SDS011;55778;54.346;10.210;2023-12-29T07:53:43;13.13;;;2.20;;
68792;SDS011;55778;54.346;10.210;2023-12-29T07:56:12;18.38;;;2.22;;
68792;SDS011;55778;54.346;10.210;2023-12-29T07:58:37;13.90;;;2.20;;
68792;SDS011;55778;54.346;10.210;2023-12-29T08:01:11;17.05;;;2.60;;
68792;SDS011;55778;54.346;10.210;2023-12-29T08:03:37;13.23;;;2.78;;
68792;SDS011;55778;54.346;10.210;2023-12-29T08:06:02;23.70;;;2.85;;
68792;SDS011;55778;54.346;10.210;2023-12-29T08:08:28;16.92;;;2.42;;
68792;SDS011;55778;54.346;10.210;2023-12-29T08:10:53;17.77;;;2.88;;
68792;SDS011;55778;54.346;10.210;2023-12-29T08:13:18;16.42;;;3.10;;
68792;SDS011;55778;54.346;10.210;2023-12-29T08:15:44;20.05;;;2.65;;
68792;SDS011;55778;54.346;10.210;2023-12-29T08:18:10;19.90;;;3.17;;
68792;SDS011;55778;54.346;10.210;2023-12-29T08:20:35;12.40;;;2.90;;
68792;SDS011;55778;54.346;10.210;2023-12-29T08:23:02;17.30;;;2.72;;
68792;SDS011;55778;54.346;10.210;2023-12-29T08:25:28;16.50;;;2.83;;
68792;SDS011;55778;54.346;10.210;2023-12-29T08:27:53;14.60;;;2.55;;
68792;SDS011;55778;54.346;10.210;2023-12-29T08:30:19;14.73;;;2.33;;
68792;SDS011;55778;54.346;10.210;2023-12-29T08:32:45;14.75;;;2.90;;
68792;SDS011;55778;54.346;10.210;2023-12-29T08:35:10;15.48;;;2.83;;
68792;SDS011;55778;54.346;10.210;2023-12-29T08:37:36;12.85;;;2.35;;
68792;SDS011;55778;54.346;10.210;2023-12-29T08:40:01;11.45;;;2.28;;
68792;SDS011;55778;54.346;10.210;2023-12-29T08:42:27;13.05;;;2.25;;
68792;SDS011;55778;54.346;10.210;2023-12-29T08:44:53;13.35;;;2.13;;
68792;SDS011;55778;54.346;10.210;2023-12-29T08:47:18;15.73;;;2.72;;
68792;SDS011;55778;54.346;10.210;2023-12-29T08:49:46;11.80;;;2.60;;
68792;SDS011;55778;54.346;10.210;2023-12-29T08:52:13;16.10;;;2.92;;
68792;SDS011;55778;54.346;10.210;2023-12-29T08:54:48;15.23;;;2.28;;
68792;SDS011;55778;54.346;10.210;2023-12-29T08:57:14;13.30;;;2.42;;
68792;SDS011;55778;54.346;10.210;2023-12-29T08:59:39;19.23;;;2.85;;
68792;SDS011;55778;54.346;10.210;2023-12-29T09:02:05;16.17;;;2.83;;
68792;SDS011;55778;54.346;10.210;2023-12-29T09:04:34;19.00;;;2.90;;
68792;SDS011;55778;54.346;10.210;2023-12-29T09:07:00;13.07;;;2.55;;
68792;SDS011;55778;54.346;10.210;2023-12-29T09:09:26;16.48;;;2.60;;
68792;SDS011;55778;54.346;10.210;2023-12-29T09:11:51;17.35;;;3.40;;
68792;SDS011;55778;54.346;10.210;2023-12-29T09:14:17;17.17;;;3.08;;
68792;SDS011;55778;54.346;10.210;2023-12-29T09:16:42;14.77;;;2.85;;
68792;SDS011;55778;54.346;10.210;2023-12-29T09:19:11;13.32;;;2.53;;
68792;SDS011;55778;54.346;10.210;2023-12-29T09:21:36;11.90;;;2.40;;
68792;SDS011;55778;54.346;10.210;2023-12-29T09:24:02;14.18;;;2.50;;
68792;SDS011;55778;54.346;10.210;2023-12-29T09:26:28;20.17;;;3.45;;
68792;SDS011;55778;54.346;10.210;2023-12-29T09:28:53;15.90;;;2.63;;
68792;SDS011;55778;54.346;10.210;2023-12-29T09:31:19;11.73;;;2.58;;
68792;SDS011;55778;54.346;10.210;2023-12-29T09:33:44;13.88;;;2.67;;
68792;SDS011;55778;54.346;10.210;2023-12-29T09:36:09;15.38;;;2.58;;
68792;SDS011;55778;54.346;10.210;2023-12-29T09:38:38;16.42;;;2.75;;
68792;SDS011;55778;54.346;10.210;2023-12-29T09:41:09;15.05;;;2.72;;
68792;SDS011;55778;54.346;10.210;2023-12-29T09:43:36;13.55;;;1.85;;
68792;SDS011;55778;54.346;10.210;2023-12-29T09:46:03;14.27;;;2.03;;
68792;SDS011;55778;54.346;10.210;2023-12-29T09:48:30;16.88;;;2.42;;
68792;SDS011;55778;54.346;10.210;2023-12-29T09:50:59;14.30;;;2.10;;
68792;SDS011;55778;54.346;10.210;2023-12-29T09:53:25;18.85;;;3.13;;
68792;SDS011;55778;54.346;10.210;2023-12-29T09:55:54;18.00;;;2.80;;
68792;SDS011;55778;54.346;10.210;2023-12-29T09:58:21;10.13;;;1.83;;
68792;SDS011;55778;54.346;10.210;2023-12-29T10:00:50;12.45;;;2.30;;
68792;SDS011;55778;54.346;10.210;2023-12-29T10:03:19;13.20;;;1.95;;
68792;SDS011;55778;54.346;10.210;2023-12-29T10:05:45;15.52;;;2.53;;
68792;SDS011;55778;54.346;10.210;2023-12-29T10:08:18;12.80;;;2.10;;
68792;SDS011;55778;54.346;10.210;2023-12-29T10:10:47;13.95;;;2.30;;
68792;SDS011;55778;54.346;10.210;2023-12-29T10:13:15;12.05;;;2.10;;
68792;SDS011;55778;54.346;10.210;2023-12-29T10:15:45;14.95;;;2.10;;
68792;SDS011;55778;54.346;10.210;2023-12-29T10:18:30;12.80;;;2.20;;
68792;SDS011;55778;54.346;10.210;2023-12-29T10:23:46;13.63;;;1.83;;
68792;SDS011;55778;54.346;10.210;2023-12-29T10:26:18;13.23;;;1.70;;
68792;SDS011;55778;54.346;10.210;2023-12-29T10:28:46;12.85;;;2.45;;
68792;SDS011;55778;54.346;10.210;2023-12-29T10:31:14;15.35;;;1.98;;
68792;SDS011;55778;54.346;10.210;2023-12-29T10:33:41;12.38;;;2.00;;
68792;SDS011;55778;54.346;10.210;2023-12-29T10:36:09;8.82;;;1.75;;
68792;SDS011;55778;54.346;10.210;2023-12-29T10:38:38;8.68;;;2.35;;
68792;SDS011;55778;54.346;10.210;2023-12-29T10:41:16;17.10;;;2.45;;
68792;SDS011;55778;54.346;10.210;2023-12-29T10:43:44;9.77;;;2.38;;
68792;SDS011;55778;54.346;10.210;2023-12-29T10:46:17;14.65;;;2.15;;
68792;SDS011;55778;54.346;10.210;2023-12-29T10:48:42;10.98;;;1.75;;
68792;SDS011;55778;54.346;10.210;2023-12-29T10:51:08;11.80;;;1.80;;
68792;SDS011;55778;54.346;10.210;2023-12-29T10:53:35;15.73;;;2.75;;
68792;SDS011;55778;54.346;10.210;2023-12-29T10:56:01;15.45;;;2.45;;
68792;SDS011;55778;54.346;10.210;2023-12-29T10:58:27;10.00;;;2.10;;
68792;SDS011;55778;54.346;10.210;2023-12-29T11:00:58;14.88;;;2.50;;
68792;SDS011;55778;54.346;10.210;2023-12-29T11:03:26;13.65;;;2.55;;
68792;SDS011;55778;54.346;10.210;2023-12-29T11:05:58;10.80;;;1.90;;
68792;SDS011;55778;54.346;10.210;2023-12-29T11:08:27;9.40;;;2.00;;
68792;SDS011;55778;54.346;10.210;2023-12-29T11:10:53;15.15;;;2.72;;
68792;SDS011;55778;54.346;10.210;2023-12-29T11:13:19;11.98;;;2.50;;
68792;SDS011;55778;54.346;10.210;2023-12-29T11:15:48;15.30;;;2.42;;
68792;SDS011;55778;54.346;10.210;2023-12-29T11:18:17;15.50;;;2.28;;
68792;SDS011;55778;54.346;10.210;2023-12-29T11:20:44;10.10;;;2.33;;
68792;SDS011;55778;54.346;10.210;2023-12-29T11:23:10;11.02;;;2.25;;
68792;SDS011;55778;54.346;10.210;2023-12-29T11:25:38;9.80;;;2.17;;
68792;SDS011;55778;54.346;10.210;2023-12-29T11:28:08;17.95;;;2.20;;
68792;SDS011;55778;54.346;10.210;2023-12-29T11:30:35;13.13;;;2.20;;
68792;SDS011;55778;54.346;10.210;2023-12-29T11:33:03;11.13;;;2.22;;
68792;SDS011;55778;54.346;10.210;2023-12-29T11:35:37;15.13;;;3.00;;
68792;SDS011;55778;54.346;10.210;2023-12-29T11:40:44;13.30;;;2.08;;
68792;SDS011;55778;54.346;10.210;2023-12-29T11:43:16;14.43;;;2.72;;
68792;SDS011;55778;54.346;10.210;2023-12-29T11:45:43;20.63;;;3.40;;
68792;SDS011;55778;54.346;10.210;2023-12-29T11:48:09;15.40;;;2.70;;
68792;SDS011;55778;54.346;10.210;2023-12-29T11:50:36;12.57;;;2.45;;
68792;SDS011;55778;54.346;10.210;2023-12-29T11:53:05;12.82;;;2.35;;
68792;SDS011;55778;54.346;10.210;2023-12-29T11:55:34;11.23;;;1.98;;
68792;SDS011;55778;54.346;10.210;2023-12-29T12:05:46;15.02;;;2.25;;
68792;SDS011;55778;54.346;10.210;2023-12-29T12:10:58;14.05;;;2.25;;
68792;SDS011;55778;54.346;10.210;2023-12-29T12:13:55;9.95;;;2.20;;
68792;SDS011;55778;54.346;10.210;2023-12-29T12:19:12;10.07;;;2.40;;
68792;SDS011;55778;54.346;10.210;2023-12-29T12:21:38;18.27;;;2.42;;
68792;SDS011;55778;54.346;10.210;2023-12-29T12:24:05;15.75;;;3.38;;
68792;SDS011;55778;54.346;10.210;2023-12-29T12:26:32;10.18;;;2.17;;
68792;SDS011;55778;54.346;10.210;2023-12-29T12:28:58;17.00;;;2.40;;
68792;SDS011;55778;54.346;10.210;2023-12-29T12:31:24;14.27;;;2.55;;
68792;SDS011;55778;54.346;10.210;2023-12-29T12:33:56;14.25;;;2.30;;
68792;SDS011;55778;54.346;10.210;2023-12-29T12:36:23;14.07;;;2.00;;
68792;SDS011;55778;54.346;10.210;2023-12-29T12:38:55;15.20;;;2.47;;
68792;SDS011;55778;54.346;10.210;2023-12-29T12:41:22;15.85;;;2.28;;
68792;SDS011;55778;54.346;10.210;2023-12-29T12:46:40;14.60;;;2.67;;
68792;SDS011;55778;54.346;10.210;2023-12-29T12:49:14;13.82;;;2.70;;
68792;SDS011;55778;54.346;10.210;2023-12-29T12:51:40;12.43;;;2.22;;
68792;SDS011;55778;54.346;10.210;2023-12-29T12:54:06;13.27;;;2.80;;
68792;SDS011;55778;54.346;10.210;2023-12-29T12:56:32;10.52;;;2.20;;
68792;SDS011;55778;54.346;10.210;2023-12-29T12:58:58;12.90;;;2.13;;
68792;SDS011;55778;54.346;10.210;2023-12-29T13:01:27;8.43;;;1.40;;
68792;SDS011;55778;54.346;10.210;2023-12-29T13:03:54;9.45;;;1.80;;
68792;SDS011;55778;54.346;10.210;2023-12-29T13:06:21;7.47;;;1.45;;
68792;SDS011;55778;54.346;10.210;2023-12-29T13:08:50;5.47;;;1.35;;
68792;SDS011;55778;54.346;10.210;2023-12-29T13:11:20;7.53;;;1.15;;
68792;SDS011;55778;54.346;10.210;2023-12-29T13:13:47;7.57;;;2.05;;
68792;SDS011;55778;54.346;10.210;2023-12-29T13:16:13;11.52;;;1.52;;
68792;SDS011;55778;54.346;10.210;2023-12-29T13:18:41;9.15;;;1.38;;
68792;SDS011;55778;54.346;10.210;2023-12-29T13:21:07;8.73;;;1.25;;
68792;SDS011;55778;54.346;10.210;2023-12-29T13:23:36;8.35;;;1.27;;
68792;SDS011;55778;54.346;10.210;2023-12-29T13:26:02;10.15;;;1.60;;
68792;SDS011;55778;54.346;10.210;2023-12-29T13:28:34;11.13;;;1.52;;
68792;SDS011;55778;54.346;10.210;2023-12-29T13:31:01;11.50;;;2.15;;
68792;SDS011;55778;54.346;10.210;2023-12-29T13:38:49;16.45;;;2.00;;
68792;SDS011;55778;54.346;10.210;2023-12-29T13:41:20;13.98;;;2.20;;
68792;SDS011;55778;54.346;10.210;2023-12-29T13:43:48;10.13;;;1.75;;
68792;SDS011;55778;54.346;10.210;2023-12-29T13:46:16;13.40;;;2.33;;
68792;SDS011;55778;54.346;10.210;2023-12-29T13:48:42;11.20;;;1.90;;
68792;SDS011;55778;54.346;10.210;2023-12-29T13:51:11;15.80;;;2.00;;
68792;SDS011;55778;54.346;10.210;2023-12-29T13:53:37;11.32;;;1.88;;
68792;SDS011;55778;54.346;10.210;2023-12-29T13:56:06;11.23;;;1.83;;
68792;SDS011;55778;54.346;10.210;2023-12-29T13:58:32;16.23;;;2.72;;
68792;SDS011;55778;54.346;10.210;2023-12-29T14:00:58;15.00;;;2.50;;
68792;SDS011;55778;54.346;10.210;2023-12-29T14:03:27;11.05;;;2.38;;
68792;SDS011;55778;54.346;10.210;2023-12-29T14:06:04;20.23;;;2.45;;
68792;SDS011;55778;54.346;10.210;2023-12-29T14:11:08;12.88;;;2.20;;
68792;SDS011;55778;54.346;10.210;2023-12-29T14:13:34;13.70;;;2.13;;
68792;SDS011;55778;54.346;10.210;2023-12-29T14:16:00;17.10;;;2.53;;
68792;SDS011;55778;54.346;10.210;2023-12-29T14:21:22;11.75;;;2.40;;
68792;SDS011;55778;54.346;10.210;2023-12-29T14:26:36;15.57;;;2.40;;
68792;SDS011;55778;54.346;10.210;2023-12-29T14:29:06;15.95;;;3.08;;
68792;SDS011;55778;54.346;10.210;2023-12-29T14:31:37;15.52;;;2.40;;
68792;SDS011;55778;54.346;10.210;2023-12-29T14:34:04;17.38;;;3.00;;
68792;SDS011;55778;54.346;10.210;2023-12-29T14:36:31;18.45;;;2.22;;
68792;SDS011;55778;54.346;10.210;2023-12-29T14:38:57;13.57;;;2.00;;
68792;SDS011;55778;54.346;10.210;2023-12-29T14:41:23;12.60;;;2.63;;
68792;SDS011;55778;54.346;10.210;2023-12-29T14:43:49;16.50;;;2.92;;
68792;SDS011;55778;54.346;10.210;2023-12-29T14:46:14;17.77;;;2.70;;
68792;SDS011;55778;54.346;10.210;2023-12-29T14:48:40;16.98;;;2.78;;
68792;SDS011;55778;54.346;10.210;2023-12-29T14:51:06;14.73;;;2.35;;
68792;SDS011;55778;54.346;10.210;2023-12-29T14:53:32;13.93;;;3.03;;
68792;SDS011;55778;54.346;10.210;2023-12-29T14:55:58;13.60;;;2.60;;
68792;SDS011;55778;54.346;10.210;2023-12-29T14:58:24;17.85;;;2.45;;
68792;SDS011;55778;54.346;10.210;2023-12-29T15:00:49;18.15;;;3.53;;
68792;SDS011;55778;54.346;10.210;2023-12-29T15:03:14;15.40;;;2.10;;
68792;SDS011;55778;54.346;10.210;2023-12-29T15:05:43;16.80;;;3.45;;
68792;SDS011;55778;54.346;10.210;2023-12-29T15:08:09;19.30;;;2.63;;